Anchor Point, Alaska
Current Conditions -  °F | °C
As of 12:53 AM on Saturday 29 Nov 2014 (Local Time) from PAHO Reporting Station
Unknown Precip Unknown Precip  
Wind Chill: -2°   Ceiling: 4300
Heat Index:   Visibility: 8mi
Dew Point:   Wind: 7mph
Humidity: 89%   Direction: 60°ENE
Pressure: 30.09"   Gusts: NA
Location:  59.77°N, 151.82°W
Report Text: PAHO 290953Z AUTO 06006KT 8SM UP OVC043 02/00 A3009 RMK AO2 SLP192 P0001 T00170000 TSNO
Loading
Personal Weather Stations






























Interactive Weather Map New forecast layout! Learn more

10-Day Weather Forecast

Advertisements
Track Severe Weather on mobile